"WATCHING THE WEATHER TO PROTECT LIFE AND PROPERTY"


THERE ARE CURRENTLY NO WATCHES NOR WARNINGS


Aviation
Satellite (InfraRed)


KFLL 261653Z 13014KT 10SM FEW030 SCT250 29/22 A3008 RMK AO2 SLP187 T02890217
KMCO 261653Z 11009KT 10SM SCT047 SCT250 31/18 A3009 RMK AO2 SLP189 T03110183
KMIA 261653Z 12010KT 10SM BKN030 BKN042 BKN250 29/22 A3009 RMK AO2 SLP189 T02940217 $
KTPA 261653Z 15009G17KT 110V180 10SM BKN035TCU BKN250 32/20 A3009 RMK AO2 SLP189 TCU ALQDS T03220200
MDPP 261700Z 05016KT 9999 FEW020 29/25 Q1017
MDSD 261700Z 16008KT 9999 FEW020CB SCT020 32/24 Q1018 CB/NE
MKJS 261700Z 06015KT 9999 FEW022 30/24 Q1015
MTPP 261700Z VRB02KT 9999 FEW030 34/20 Q1015 A 2999
MUHA 261650Z 14007KT 090V200 9000 BKN030 29/22 Q1018
MYNN 261700Z 14013KT 9999 SCT025 30/22 A3013
TAPA 261700Z 08009KT 040V140 9999 FEW023 29/20 Q1018 NOSIG
TFFF 261730Z AUTO 10012KT 070V130 9999 BKN027 BKN034 BKN048 30/23 Q1016 TEMPO 4000 SHRA BKN018TCU
TFFR 261730Z AUTO 08009KT 030V140 9999 BKN039 30/20 Q1017 TEMPO 4000 SHRA BKN018TCU
TIST 261653Z 10008KT 10SM SCT033 28/21 A3008 RMK AO2 RAB32E41 SLP185 P0000 T02830211
TISX 261653Z 11015KT 10SM SCT030 30/22 A3007 RMK AO2 SLP182 T03000222
TJSJ 261656Z 07015KT 10SM TS FEW026 SCT032CB BKN090 28/22 A3007 RMK AO2 TSB56 SLP183 OCNL LTGCG S TS S MOV W VCSH SE-SW T02830222
TKPK 261700Z 06013KT 9999 FEW023 SCT045 30/20 Q1018
TNCA 261700Z 09025G36KT 9999 SCT023 31/24 Q1013 NOSIG
TNCB 261655Z 11019KT 080V160 9999 FEW016 BKN021 31/23 Q1014
TNCC 261700Z 09013KT 9999 FEW023 29/23 Q1014 NOSIG=
TNCE 261655Z AUTO 07012KT 040V100 //// // ///////// 29/21 Q1018 RE//
TNCM 261700Z 08009KT 050V120 9999 FEW018TCU 31/20 Q1019 NOSIG RMK TCU S
TQPF 261700Z 09012KT 9999 BKN019 28/23 Q1019
TUPJ 261700Z 09008KT 10SM FEW020 30/22 A3010 RMK Q1019 VIS 16KM